First Coast — WCR9075 — position and weather

sailwx.info

Track history (hours):
 
Tides and Currents Weather Stations Pressure Air Temp Water Temp Dewpoint Dewpoint Depression Visibility Wind Speed Wind Dir Waves Ship Positions

First Coast

Owner: DANN MARINE TOWING L C, CHESAPEAKE CITY, MD. More information available from US FCC via Universal Licensing System and Coast Guard Vessel Documentation Center.

Last reported at 2015-Jan-25 14:28 UTC. Time now 2015-Jan-30 23:23 UTC.
Position N 38°03' W 076°14'.

; draft 3.5 m.

Type: Tug. MMSI: 367024280.

Date/timePositionNaut miles runAvg speedWind from/ knotsBaromVisibWave heightAir tempDewpointWater temp
2015-Jan-25 14:28N 38°03' W 076°14'6 7.0
2015-Jan-25 13:33N 38°09' W 076°16'42 1.3
2015-Jan-24 04:15N 38°51' W 076°26'11 6.4
2015-Jan-24 02:33N 39°01' W 076°22'6 5.6
2015-Jan-24 01:33N 39°07' W 076°20'7 5.2
2015-Jan-24 00:10N 39°13' W 076°15'7 0.1
2015-Jan-21 22:43N 39°07' W 076°20'1 7.7
2015-Jan-21 22:33N 39°06' W 076°20'9 8.2
2015-Jan-21 21:29N 38°57' W 076°24'8 8.1
2015-Jan-21 20:33N 38°50' W 076°26'54 7.6
2015-Jan-21 13:25N 37°57' W 076°13'  
2015-Jan-19 04:10N 38°01' W 076°14'4 6.7
2015-Jan-19 03:33N 38°05' W 076°15'58 6.4
2015-Jan-18 18:29N 39°02' W 076°22'5 0.1
2015-Jan-17 04:22N 39°07' W 076°19'6 7.5
2015-Jan-17 03:31N 39°01' W 076°22'7 7.1
2015-Jan-17 02:33N 38°54' W 076°25'51 7.3
2015-Jan-16 19:33N 38°03' W 076°15'9 7.9
2015-Jan-16 18:24N 37°55' W 076°11'54 7.7
2015-Jan-16 11:18N 37°00' W 076°15'66 6.1
2015-Jan-16 00:28N 38°06' W 076°15'4510.8
2015-Jan-15 20:19N 38°50' W 076°26'810.6
2015-Jan-15 19:32N 38°58' W 076°23'1110.3
2015-Jan-15 18:27N 39°09' W 076°19'  
Track history (hours):
 
Tides and Currents Weather Stations Pressure Air Temp Water Temp Dewpoint Dewpoint Depression Visibility Wind Speed Wind Dir Waves Ship Positions

First Coast

Owner: DANN MARINE TOWING L C, CHESAPEAKE CITY, MD. More information available from US FCC via Universal Licensing System and Coast Guard Vessel Documentation Center.

Last reported at 2015-Jan-25 14:28 UTC. Time now 2015-Jan-30 23:23 UTC.
Position N 38°03' W 076°14'.

; draft 3.5 m.

Type: Tug. MMSI: 367024280.

Date/timePositionNaut miles runAvg speedWind from/ knotsBaromVisibWave heightAir tempDewpointWater temp
2015-Jan-25 14:28N 38°03' W 076°14'6 7.0
2015-Jan-25 13:33N 38°09' W 076°16'42 1.3
2015-Jan-24 04:15N 38°51' W 076°26'11 6.4
2015-Jan-24 02:33N 39°01' W 076°22'6 5.6
2015-Jan-24 01:33N 39°07' W 076°20'7 5.2
2015-Jan-24 00:10N 39°13' W 076°15'7 0.1
2015-Jan-21 22:43N 39°07' W 076°20'1 7.7
2015-Jan-21 22:33N 39°06' W 076°20'9 8.2
2015-Jan-21 21:29N 38°57' W 076°24'8 8.1
2015-Jan-21 20:33N 38°50' W 076°26'54 7.6
2015-Jan-21 13:25N 37°57' W 076°13'  
2015-Jan-19 04:10N 38°01' W 076°14'4 6.7
2015-Jan-19 03:33N 38°05' W 076°15'58 6.4
2015-Jan-18 18:29N 39°02' W 076°22'5 0.1
2015-Jan-17 04:22N 39°07' W 076°19'6 7.5
2015-Jan-17 03:31N 39°01' W 076°22'7 7.1
2015-Jan-17 02:33N 38°54' W 076°25'51 7.3
2015-Jan-16 19:33N 38°03' W 076°15'9 7.9
2015-Jan-16 18:24N 37°55' W 076°11'54 7.7
2015-Jan-16 11:18N 37°00' W 076°15'66 6.1
2015-Jan-16 00:28N 38°06' W 076°15'4510.8
2015-Jan-15 20:19N 38°50' W 076°26'810.6
2015-Jan-15 19:32N 38°58' W 076°23'1110.3
2015-Jan-15 18:27N 39°09' W 076°19'  

Dump ship's entire track history